createdAt,value
2018-10-03T00:01:44.233Z,99749.95
2018-10-03T00:04:11.895Z,99745.11
2018-10-03T00:06:39.553Z,99746.75
2018-10-03T00:09:07.980Z,99747.10
2018-10-03T00:11:35.665Z,99752.60
2018-10-03T00:14:03.620Z,99749.05
2018-10-03T00:16:31.264Z,99753.28
2018-10-03T00:18:58.964Z,99748.00
2018-10-03T00:21:26.577Z,99745.31
2018-10-03T00:23:54.221Z,99752.58
2018-10-03T00:26:21.825Z,99752.91
2018-10-03T00:28:49.468Z,99763.59
2018-10-03T00:31:17.084Z,99753.14
2018-10-03T00:33:44.902Z,99753.05
2018-10-03T00:36:12.540Z,99757.70
2018-10-03T00:38:40.219Z,99759.71
2018-10-03T00:41:08.181Z,99760.91
2018-10-03T00:43:36.060Z,99761.66
2018-10-03T00:46:03.724Z,99771.96
2018-10-03T00:48:31.387Z,99766.64
2018-10-03T00:50:59.033Z,99769.56
2018-10-03T00:53:26.661Z,99766.80
2018-10-03T00:55:54.313Z,99760.16
2018-10-03T00:58:22.046Z,99760.47
2018-10-03T01:00:49.689Z,99764.26
2018-10-03T01:03:17.348Z,99759.31
2018-10-03T01:05:44.977Z,99760.44
2018-10-03T01:08:12.593Z,99763.84
2018-10-03T01:10:40.520Z,99770.25
2018-10-03T01:13:08.181Z,99769.70
2018-10-03T01:15:35.833Z,99770.45
2018-10-03T01:18:03.697Z,99772.98
2018-10-03T01:20:31.329Z,99775.91
2018-10-03T01:22:58.965Z,99772.73
2018-10-03T01:25:26.991Z,99773.45
2018-10-03T01:27:54.649Z,99778.57
2018-10-03T01:30:22.293Z,99777.95
2018-10-03T01:32:49.958Z,99774.77
2018-10-03T01:35:17.594Z,99773.61
2018-10-03T01:37:45.562Z,99776.08
2018-10-03T01:40:13.211Z,99776.42
2018-10-03T01:42:40.864Z,99778.44
2018-10-03T01:45:08.556Z,99779.80
2018-10-03T01:47:36.249Z,99778.84
2018-10-03T01:50:04.449Z,99786.59
2018-10-03T01:52:32.065Z,99785.23
2018-10-03T01:54:59.693Z,99783.02
2018-10-03T01:57:27.457Z,99781.72
2018-10-03T01:59:55.076Z,99786.78
2018-10-03T02:02:22.726Z,99788.37
2018-10-03T02:04:50.372Z,99781.70
2018-10-03T02:07:18.031Z,99786.32
2018-10-03T02:09:45.701Z,99787.29
2018-10-03T02:12:13.337Z,99777.97
2018-10-03T02:14:41.003Z,99776.48
2018-10-03T02:17:08.648Z,99780.76
2018-10-03T02:19:36.282Z,99785.65
2018-10-03T02:22:03.948Z,99785.40
2018-10-03T02:24:31.593Z,99796.84
2018-10-03T02:26:59.228Z,99796.48
2018-10-03T02:29:27.086Z,99796.24
2018-10-03T02:31:54.721Z,99796.16
2018-10-03T02:34:22.343Z,99798.30
2018-10-03T02:36:50.005Z,99792.98
2018-10-03T02:39:17.644Z,99797.26
2018-10-03T02:41:45.268Z,99798.03
2018-10-03T02:44:12.960Z,99801.75
2018-10-03T02:46:40.577Z,99800.38
2018-10-03T02:49:08.226Z,99803.64
2018-10-03T02:51:35.877Z,99811.42
2018-10-03T02:54:03.593Z,99808.88
2018-10-03T02:56:31.364Z,99809.55
2018-10-03T02:58:59.017Z,99806.94
2018-10-03T03:01:26.710Z,99810.50
2018-10-03T03:03:54.329Z,99814.58
2018-10-03T03:06:22.013Z,99816.56
2018-10-03T03:08:49.704Z,99810.59
2018-10-03T03:11:17.272Z,99819.59
2018-10-03T03:13:44.958Z,99817.06
2018-10-03T03:16:12.589Z,99823.30
2018-10-03T03:18:40.219Z,99821.69
2018-10-03T03:21:07.861Z,99827.05
2018-10-03T03:23:35.490Z,99824.22
2018-10-03T03:26:03.091Z,99823.14
2018-10-03T03:28:30.800Z,99828.11
2018-10-03T03:30:58.419Z,99830.88
2018-10-03T03:33:26.108Z,99830.63
2018-10-03T03:35:53.766Z,99830.81
2018-10-03T03:38:21.402Z,99839.66
2018-10-03T03:40:49.055Z,99839.27
2018-10-03T03:43:16.729Z,99841.09
2018-10-03T03:45:44.432Z,99843.33
2018-10-03T03:48:12.072Z,99846.88
2018-10-03T03:50:39.706Z,99844.77
2018-10-03T03:53:07.334Z,99842.39
2018-10-03T03:55:35.021Z,99845.42
2018-10-03T03:58:02.666Z,99848.90
2018-10-03T04:00:30.293Z,99852.79
2018-10-03T04:02:57.941Z,99859.70
2018-10-03T04:05:25.590Z,99860.62
2018-10-03T04:07:53.466Z,99863.67
2018-10-03T04:10:21.141Z,99857.59
2018-10-03T04:12:48.869Z,99861.45
2018-10-03T04:15:16.543Z,99858.74
2018-10-03T04:17:44.209Z,99869.55
2018-10-03T04:20:11.929Z,99865.63
2018-10-03T04:22:39.713Z,99865.61
2018-10-03T04:25:07.380Z,99866.92
2018-10-03T04:27:35.174Z,99873.39
2018-10-03T04:30:02.834Z,99868.23
2018-10-03T04:32:30.464Z,99880.34
2018-10-03T04:34:58.105Z,99879.01
2018-10-03T04:37:25.742Z,99879.39
2018-10-03T04:39:53.431Z,99872.42
2018-10-03T04:42:21.090Z,99879.73
2018-10-03T04:44:48.721Z,99883.16
2018-10-03T04:47:16.352Z,99884.89
2018-10-03T04:49:43.993Z,99882.95
2018-10-03T04:52:11.622Z,99883.14
2018-10-03T04:54:39.429Z,99883.00
2018-10-03T04:57:07.093Z,99884.70
2018-10-03T04:59:34.740Z,99886.01
2018-10-03T05:02:02.437Z,99881.61
2018-10-03T05:04:30.085Z,99883.25
2018-10-03T05:06:57.737Z,99891.38
2018-10-03T05:09:25.367Z,99888.30
2018-10-03T05:11:53.099Z,99881.26
2018-10-03T05:14:20.752Z,99882.90
2018-10-03T05:16:48.421Z,99887.16
2018-10-03T05:19:16.149Z,99895.44
2018-10-03T05:21:43.778Z,99902.84
2018-10-03T05:24:11.425Z,99894.50
2018-10-03T05:26:39.102Z,99900.95
2018-10-03T05:29:06.745Z,99902.03
2018-10-03T05:31:34.421Z,99897.94
2018-10-03T05:34:08.948Z,99908.67
2018-10-03T05:36:40.824Z,99909.12
2018-10-03T05:39:11.999Z,99910.84
2018-10-03T05:41:41.565Z,99916.07
2018-10-03T05:44:11.323Z,99922.52
2018-10-03T05:46:43.951Z,99922.02
2018-10-03T05:49:12.445Z,99925.41
2018-10-03T05:51:42.361Z,99931.83
2018-10-03T05:54:11.270Z,99927.02
2018-10-03T05:56:39.586Z,99933.47
2018-10-03T05:59:08.284Z,99931.75
2018-10-03T06:01:36.440Z,99936.86
2018-10-03T06:04:05.609Z,99941.59
2018-10-03T06:06:34.488Z,99946.23
2018-10-03T06:09:05.595Z,99947.09
2018-10-03T06:11:34.873Z,99947.84
2018-10-03T06:14:03.816Z,99949.59
2018-10-03T06:16:32.873Z,99948.26
2018-10-03T06:19:02.814Z,99951.77
2018-10-03T06:21:30.744Z,99957.47
2018-10-03T06:24:02.001Z,99952.74
2018-10-03T06:26:31.054Z,99956.75
2018-10-03T06:28:59.045Z,99952.92
2018-10-03T06:31:27.365Z,99957.28
2018-10-03T06:33:55.397Z,99953.80
2018-10-03T06:36:23.342Z,99960.34
2018-10-03T06:38:51.923Z,99966.00
2018-10-03T06:41:23.723Z,99967.24
2018-10-03T06:43:51.707Z,99966.86
2018-10-03T06:46:20.242Z,99972.12
2018-10-03T06:48:48.231Z,99975.17
2018-10-03T06:51:16.088Z,99980.05
2018-10-03T06:53:43.949Z,99982.72
2018-10-03T06:56:11.895Z,99981.11
2018-10-03T06:58:39.741Z,99987.26
2018-10-03T07:01:07.756Z,99988.14
2018-10-03T07:03:36.142Z,99988.78
2018-10-03T07:06:03.990Z,99996.28
2018-10-03T07:08:31.879Z,99997.45
2018-10-03T07:10:59.762Z,99996.24
2018-10-03T07:13:28.624Z,100006.08
2018-10-03T07:15:57.288Z,100013.20
2018-10-03T07:18:27.451Z,100018.66
2018-10-03T07:20:55.308Z,100017.80
2018-10-03T07:23:23.183Z,100021.27
2018-10-03T07:25:51.063Z,100021.66
2018-10-03T07:28:18.903Z,100028.98
2018-10-03T07:30:48.664Z,100029.84
2018-10-03T07:33:16.856Z,100031.59
2018-10-03T07:35:45.414Z,100036.45
2018-10-03T07:38:14.427Z,100040.37
2018-10-03T07:40:42.579Z,100046.04
2018-10-03T07:43:10.871Z,100049.59
2018-10-03T07:45:38.707Z,100053.14
2018-10-03T07:48:07.578Z,100049.66
2018-10-03T07:50:35.635Z,100049.24
2018-10-03T07:53:03.570Z,100055.35
2018-10-03T07:55:31.443Z,100053.14
2018-10-03T07:57:59.435Z,100061.34
2018-10-03T08:00:28.821Z,100060.93
2018-10-03T08:02:58.537Z,100065.73
2018-10-03T08:05:26.494Z,100065.41
2018-10-03T08:07:54.161Z,100073.86
2018-10-03T08:10:21.933Z,100073.92
2018-10-03T08:12:49.578Z,100079.17
2018-10-03T08:15:18.401Z,100077.61
2018-10-03T08:17:47.149Z,100085.04
2018-10-03T08:20:15.778Z,100083.34
2018-10-03T08:22:44.250Z,100082.05
2018-10-03T08:25:13.253Z,100089.08
2018-10-03T08:27:43.111Z,100095.27
2018-10-03T08:30:11.431Z,100093.57
2018-10-03T08:32:39.724Z,100093.15
2018-10-03T08:35:09.011Z,100097.44
2018-10-03T08:37:37.271Z,100103.97
2018-10-03T08:40:05.463Z,100106.62
2018-10-03T08:42:33.837Z,100104.08
2018-10-03T08:45:01.869Z,100108.39
2018-10-03T08:47:29.804Z,100104.52
2018-10-03T08:49:57.877Z,100106.22
2018-10-03T08:52:26.307Z,100113.11
2018-10-03T08:54:54.283Z,100113.11
2018-10-03T08:57:22.347Z,100123.53
2018-10-03T08:59:50.352Z,100125.28
2018-10-03T09:02:18.957Z,100123.53
2018-10-03T09:04:47.889Z,100126.21
2018-10-03T09:07:16.778Z,100125.85
2018-10-03T09:09:45.045Z,100129.20
2018-10-03T09:12:13.145Z,100134.72
2018-10-03T09:14:42.979Z,100137.33
2018-10-03T09:17:12.433Z,100131.16
2018-10-03T09:19:40.558Z,100142.73
2018-10-03T09:22:10.577Z,100138.30
2018-10-03T09:24:38.271Z,100143.88
2018-10-03T09:27:05.913Z,100149.39
2018-10-03T09:29:33.584Z,100149.84
2018-10-03T09:32:01.364Z,100152.75
2018-10-03T09:34:29.006Z,100160.20
2018-10-03T09:36:56.680Z,100161.80
2018-10-03T09:39:24.394Z,100164.73
2018-10-03T09:41:52.034Z,100167.27
2018-10-03T09:44:19.736Z,100166.25
2018-10-03T09:46:47.402Z,100171.83
2018-10-03T09:49:15.045Z,100170.97
2018-10-03T09:51:42.668Z,100170.30
2018-10-03T09:54:10.374Z,100174.66
2018-10-03T09:56:37.993Z,100184.61
2018-10-03T09:59:05.673Z,100184.08
2018-10-03T10:01:34.119Z,100180.67
2018-10-03T10:04:02.881Z,100191.34
2018-10-03T10:06:31.732Z,100194.75
2018-10-03T10:08:59.356Z,100195.09
2018-10-03T10:11:27.143Z,100198.43
2018-10-03T10:13:54.691Z,100196.53
2018-10-03T10:16:22.336Z,100196.72
2018-10-03T10:18:50.566Z,100203.19
2018-10-03T10:21:18.198Z,100206.27
2018-10-03T10:23:45.864Z,100211.42
2018-10-03T10:26:13.513Z,100205.12
2018-10-03T10:28:41.258Z,100211.54
2018-10-03T10:31:09.009Z,100214.34
2018-10-03T10:33:36.665Z,100214.84
2018-10-03T10:36:04.358Z,100215.19
2018-10-03T10:38:32.020Z,100217.80
2018-10-03T10:40:59.704Z,100220.42
2018-10-03T10:43:27.352Z,100222.08
2018-10-03T10:45:55.041Z,100226.19
2018-10-03T10:48:22.721Z,100225.16
2018-10-03T10:50:50.373Z,100231.88
2018-10-03T10:53:18.033Z,100231.22
2018-10-03T10:55:45.662Z,100241.25
2018-10-03T10:58:13.429Z,100234.22
2018-10-03T11:00:41.088Z,100242.71
2018-10-03T11:03:08.831Z,100247.44
2018-10-03T11:05:36.548Z,100249.61
2018-10-03T11:08:04.263Z,100252.82
2018-10-03T11:10:31.893Z,100268.66
2018-10-03T11:12:59.496Z,100266.14
2018-10-03T11:15:27.290Z,100269.69
2018-10-03T11:17:54.995Z,100282.02
2018-10-03T11:20:22.621Z,100282.11
2018-10-03T11:22:50.229Z,100272.34
2018-10-03T11:25:17.991Z,100279.67
2018-10-03T11:27:45.755Z,100286.92
2018-10-03T11:30:13.424Z,100285.67
2018-10-03T11:32:41.062Z,100291.70
2018-10-03T11:35:08.705Z,100288.31
2018-10-03T11:37:36.382Z,100294.58
2018-10-03T11:40:04.237Z,100302.36
2018-10-03T11:42:31.864Z,100306.52
2018-10-03T11:44:59.534Z,100313.94
2018-10-03T11:47:27.175Z,100311.23
2018-10-03T11:49:54.853Z,100311.95
2018-10-03T11:52:22.525Z,100313.78
2018-10-03T11:54:50.157Z,100320.58
2018-10-03T11:57:17.816Z,100328.78
2018-10-03T11:59:45.448Z,100327.16
2018-10-03T12:02:13.093Z,100331.36
2018-10-03T12:04:40.733Z,100335.75
2018-10-03T12:07:08.421Z,100340.62
2018-10-03T12:09:36.044Z,100338.70
2018-10-03T12:12:03.717Z,100347.88
2018-10-03T12:14:31.357Z,100347.95
2018-10-03T12:16:58.973Z,100340.45
2018-10-03T12:19:26.666Z,100349.09
2018-10-03T12:21:54.345Z,100355.59
2018-10-03T12:24:21.961Z,100352.23
2018-10-03T12:26:56.397Z,100354.14
2018-10-03T12:29:24.021Z,100364.11
2018-10-03T12:31:51.690Z,100366.78
2018-10-03T12:34:19.326Z,100369.34
2018-10-03T12:36:46.943Z,100367.38
2018-10-03T12:39:14.583Z,100366.31
2018-10-03T12:41:42.236Z,100381.81
2018-10-03T12:44:09.877Z,100386.67
2018-10-03T12:46:38.121Z,100387.53
2018-10-03T12:49:05.822Z,100393.27
2018-10-03T12:51:33.472Z,100387.96
2018-10-03T12:54:01.128Z,100392.69
2018-10-03T12:56:28.753Z,100395.81
2018-10-03T12:58:56.448Z,100394.90
2018-10-03T13:01:24.192Z,100407.03
2018-10-03T13:03:51.757Z,100410.94
2018-10-03T13:06:19.383Z,100411.45
2018-10-03T13:08:46.985Z,100416.24
2018-10-03T13:11:14.621Z,100418.81
2018-10-03T13:13:42.237Z,100419.30
2018-10-03T13:16:10.011Z,100419.30
2018-10-03T13:18:37.630Z,100425.41
2018-10-03T13:21:05.270Z,100430.64
2018-10-03T13:23:32.898Z,100433.64
2018-10-03T13:26:00.517Z,100439.36
2018-10-03T13:28:28.213Z,100439.83
2018-10-03T13:30:55.885Z,100438.66
2018-10-03T13:33:23.537Z,100438.66
2018-10-03T13:35:51.473Z,100442.59
2018-10-03T13:38:19.104Z,100448.17
2018-10-03T13:40:46.789Z,100444.62
2018-10-03T13:43:14.409Z,100450.36
2018-10-03T13:45:42.097Z,100454.36
2018-10-03T13:48:09.793Z,100462.23
2018-10-03T13:50:37.445Z,100456.03
2018-10-03T13:53:05.104Z,100460.69
2018-10-03T13:55:32.818Z,100460.26
2018-10-03T13:58:00.444Z,100459.33
2018-10-03T14:00:28.138Z,100462.86
2018-10-03T14:02:55.762Z,100463.81
2018-10-03T14:05:23.420Z,100467.75
2018-10-03T14:07:51.140Z,100461.63
2018-10-03T14:10:18.800Z,100469.91
2018-10-03T14:12:46.477Z,100471.66
2018-10-03T14:15:14.130Z,100478.72
2018-10-03T14:17:41.800Z,100484.89
2018-10-03T14:20:09.778Z,100489.99
2018-10-03T14:22:37.416Z,100490.88
2018-10-03T14:25:05.505Z,100499.28
2018-10-03T14:27:33.164Z,100498.44
2018-10-03T14:30:00.919Z,100498.92
2018-10-03T14:32:28.537Z,100502.48
2018-10-03T14:34:56.153Z,100506.92
2018-10-03T14:37:23.837Z,100512.22
2018-10-03T14:39:51.540Z,100511.45
2018-10-03T14:42:19.148Z,100508.42
2018-10-03T14:44:46.759Z,100515.89
2018-10-03T14:47:14.423Z,100522.00
2018-10-03T14:49:42.069Z,100529.54
2018-10-03T14:52:09.774Z,100530.91
2018-10-03T14:54:37.479Z,100535.72
2018-10-03T14:57:05.129Z,100541.48
2018-10-03T14:59:32.726Z,100533.71
2018-10-03T15:02:00.397Z,100545.16
2018-10-03T15:04:28.032Z,100547.02
2018-10-03T15:06:55.670Z,100544.02
2018-10-03T15:09:23.369Z,100542.40
2018-10-03T15:11:51.005Z,100547.73
2018-10-03T15:14:18.669Z,100554.39
2018-10-03T15:16:46.392Z,100559.82
2018-10-03T15:19:14.030Z,100565.11
2018-10-03T15:21:41.702Z,100567.33
2018-10-03T15:24:09.351Z,100564.42
2018-10-03T15:26:37.018Z,100564.05
2018-10-03T15:29:04.682Z,100569.75
2018-10-03T15:31:32.389Z,100568.98
2018-10-03T15:34:00.005Z,100575.06
2018-10-03T15:36:27.737Z,100584.70
2018-10-03T15:38:55.389Z,100582.56
2018-10-03T15:41:23.005Z,100588.70
2018-10-03T15:43:50.669Z,100593.11
2018-10-03T15:46:18.314Z,100603.55
2018-10-03T15:48:45.953Z,100599.28
2018-10-03T15:51:14.502Z,100607.99
2018-10-03T15:53:42.193Z,100610.59
2018-10-03T15:56:09.813Z,100610.17
2018-10-03T15:58:37.437Z,100614.52
2018-10-03T16:01:05.406Z,100613.30
2018-10-03T16:03:39.764Z,100622.00
2018-10-03T16:06:07.429Z,100624.22
2018-10-03T16:08:35.061Z,100624.17
2018-10-03T16:11:02.755Z,100632.41
2018-10-03T16:13:30.432Z,100631.58
2018-10-03T16:15:58.135Z,100643.80
2018-10-03T16:18:25.773Z,100645.55
2018-10-03T16:20:53.405Z,100649.09
2018-10-03T16:23:21.065Z,100651.28
2018-10-03T16:25:48.740Z,100651.28
2018-10-03T16:28:16.365Z,100658.24
2018-10-03T16:30:44.012Z,100661.76
2018-10-03T16:33:11.671Z,100666.98
2018-10-03T16:35:39.296Z,100666.11
2018-10-03T16:38:06.941Z,100668.29
2018-10-03T16:40:34.561Z,100668.72
2018-10-03T16:43:02.207Z,100678.30
2018-10-03T16:45:29.836Z,100673.95
2018-10-03T16:47:57.505Z,100676.56
2018-10-03T16:50:25.140Z,100670.03
2018-10-03T16:52:52.857Z,100677.42
2018-10-03T16:55:20.594Z,100676.56
2018-10-03T16:57:48.341Z,100687.91
2018-10-03T17:00:15.960Z,100677.03
2018-10-03T17:02:43.701Z,100684.89
2018-10-03T17:05:11.446Z,100681.84
2018-10-03T17:07:39.181Z,100683.63
2018-10-03T17:10:08.229Z,100687.57
2018-10-03T17:12:35.901Z,100688.95
2018-10-03T17:15:03.641Z,100693.30
2018-10-03T17:17:31.517Z,100698.55
2018-10-03T17:19:59.162Z,100699.88
2018-10-03T17:22:26.793Z,100697.77
2018-10-03T17:24:54.798Z,100709.55
2018-10-03T17:27:22.436Z,100716.09
2018-10-03T17:29:50.049Z,100717.43
2018-10-03T17:32:17.896Z,100718.73
2018-10-03T17:34:45.523Z,100724.41
2018-10-03T17:37:13.166Z,100723.14
2018-10-03T17:39:40.820Z,100716.20
2018-10-03T17:42:08.478Z,100715.36
2018-10-03T17:44:36.154Z,100717.13
2018-10-03T17:47:03.805Z,100713.23
2018-10-03T17:49:31.437Z,100722.83
2018-10-03T17:51:59.081Z,100722.85
2018-10-03T17:54:26.791Z,100725.52
2018-10-03T17:56:54.453Z,100725.94
2018-10-03T17:59:22.082Z,100732.48
2018-10-03T18:01:51.764Z,100737.73
2018-10-03T18:04:19.517Z,100738.59
2018-10-03T18:06:47.205Z,100743.80
2018-10-03T18:09:14.983Z,100744.70
2018-10-03T18:11:42.637Z,100752.11
2018-10-03T18:14:10.284Z,100749.91
2018-10-03T18:16:37.912Z,100751.67
2018-10-03T18:19:05.726Z,100751.67
2018-10-03T18:21:33.862Z,100753.00
2018-10-03T18:24:01.482Z,100751.28
2018-10-03T18:26:29.145Z,100752.13
2018-10-03T18:28:56.797Z,100759.95
2018-10-03T18:31:24.686Z,100762.53
2018-10-03T18:33:52.976Z,100762.11
2018-10-03T18:36:20.609Z,100766.01
2018-10-03T18:38:48.471Z,100767.76
2018-10-03T18:41:16.141Z,100777.25
2018-10-03T18:43:43.789Z,100778.09
2018-10-03T18:46:11.442Z,100775.94
2018-10-03T18:48:39.084Z,100779.38
2018-10-03T18:51:06.829Z,100785.04
2018-10-03T18:53:34.593Z,100787.65
2018-10-03T18:56:02.322Z,100784.14
2018-10-03T18:58:30.041Z,100785.02
2018-10-03T19:00:57.666Z,100784.12
2018-10-03T19:03:25.308Z,100784.12
2018-10-03T19:05:53.104Z,100787.17
2018-10-03T19:08:20.673Z,100791.94
2018-10-03T19:10:48.341Z,100791.94
2018-10-03T19:13:15.955Z,100791.94
2018-10-03T19:15:43.570Z,100807.59
2018-10-03T19:18:11.421Z,100815.88
2018-10-03T19:20:38.985Z,100814.57
2018-10-03T19:23:06.599Z,100818.50
2018-10-03T19:25:34.268Z,100819.34
2018-10-03T19:28:01.936Z,100814.13
2018-10-03T19:30:29.568Z,100814.58
2018-10-03T19:32:57.264Z,100815.44
2018-10-03T19:35:24.896Z,100818.48
2018-10-03T19:37:52.541Z,100818.05
2018-10-03T19:40:20.208Z,100819.34
2018-10-03T19:42:47.879Z,100824.58
2018-10-03T19:45:15.590Z,100825.91
2018-10-03T19:47:43.205Z,100819.44
2018-10-03T19:50:10.832Z,100827.23
2018-10-03T19:52:38.517Z,100825.50
2018-10-03T19:55:06.183Z,100826.34
2018-10-03T19:57:33.813Z,100833.33
2018-10-03T20:00:01.485Z,100838.97
2018-10-03T20:02:29.145Z,100836.36
2018-10-03T20:04:56.809Z,100845.06
2018-10-03T20:07:24.504Z,100842.44
2018-10-03T20:09:52.128Z,100841.57
2018-10-03T20:12:19.744Z,100845.05
2018-10-03T20:14:47.399Z,100840.73
2018-10-03T20:17:15.017Z,100838.09
2018-10-03T20:19:42.698Z,100842.00
2018-10-03T20:22:10.747Z,100841.13
2018-10-03T20:24:38.817Z,100844.18
2018-10-03T20:27:06.518Z,100843.74
2018-10-03T20:29:34.204Z,100843.74
2018-10-03T20:32:01.933Z,100848.55
2018-10-03T20:34:29.569Z,100842.91
2018-10-03T20:36:57.217Z,100839.41
2018-10-03T20:39:24.828Z,100839.44
2018-10-03T20:41:52.543Z,100838.14
2018-10-03T20:44:20.109Z,100832.92
2018-10-03T20:46:47.721Z,100841.59
2018-10-03T20:49:15.377Z,100833.77
2018-10-03T20:51:42.990Z,100837.23
2018-10-03T20:54:10.753Z,100839.42
2018-10-03T20:56:38.368Z,100839.42
2018-10-03T20:59:05.993Z,100839.86
2018-10-03T21:01:33.637Z,100841.59
2018-10-03T21:04:01.260Z,100842.45
2018-10-03T21:06:28.876Z,100842.89
2018-10-03T21:08:56.557Z,100842.91
2018-10-03T21:11:24.241Z,100842.89
2018-10-03T21:13:51.865Z,100849.41
2018-10-03T21:16:19.499Z,100851.16
2018-10-03T21:18:47.124Z,100845.94
2018-10-03T21:21:14.820Z,100857.67
2018-10-03T21:23:42.464Z,100853.33
2018-10-03T21:26:10.074Z,100854.63
2018-10-03T21:28:37.821Z,100860.28
2018-10-03T21:31:05.466Z,100865.91
2018-10-03T21:33:33.075Z,100862.89
2018-10-03T21:36:00.713Z,100858.10
2018-10-03T21:38:28.360Z,100866.36
2018-10-03T21:40:55.973Z,100865.92
2018-10-03T21:43:23.580Z,100873.31
2018-10-03T21:45:51.290Z,100873.75
2018-10-03T21:48:18.907Z,100875.50
2018-10-03T21:50:46.523Z,100869.41
2018-10-03T21:53:14.210Z,100871.57
2018-10-03T21:55:42.062Z,100875.48
2018-10-03T21:58:09.689Z,100881.14
2018-10-03T22:00:42.837Z,100877.64
2018-10-03T22:03:10.449Z,100877.22
2018-10-03T22:05:38.136Z,100878.95
2018-10-03T22:08:05.761Z,100880.70
2018-10-03T22:10:33.389Z,100871.57
2018-10-03T22:13:01.016Z,100875.05
2018-10-03T22:15:28.657Z,100877.63
2018-10-03T22:17:56.279Z,100875.47
2018-10-03T22:20:23.888Z,100877.66
2018-10-03T22:22:51.553Z,100866.34
2018-10-03T22:25:19.178Z,100875.91
2018-10-03T22:27:46.805Z,100873.73
2018-10-03T22:30:14.534Z,100874.61
2018-10-03T22:32:42.137Z,100878.96
2018-10-03T22:35:09.777Z,100870.70
2018-10-03T22:37:37.438Z,100862.88
2018-10-03T22:40:05.135Z,100861.56
2018-10-03T22:42:32.765Z,100864.60
2018-10-03T22:45:00.400Z,100860.70
2018-10-03T22:47:28.057Z,100863.77
2018-10-03T22:49:55.725Z,100872.93
2018-10-03T22:52:23.509Z,100868.59
2018-10-03T22:54:51.142Z,100864.70
2018-10-03T22:57:18.860Z,100869.91
2018-10-03T22:59:46.482Z,100874.71
2018-10-03T23:02:14.129Z,100872.56
2018-10-03T23:04:41.793Z,100866.94
2018-10-03T23:07:09.404Z,100868.25
2018-10-03T23:09:37.079Z,100872.17
2018-10-03T23:12:04.705Z,100868.69
2018-10-03T23:14:32.336Z,100877.36
2018-10-03T23:16:59.973Z,100865.65
2018-10-03T23:19:27.626Z,100869.16
2018-10-03T23:21:55.284Z,100866.54
2018-10-03T23:24:22.902Z,100869.17
2018-10-03T23:26:50.525Z,100870.05
2018-10-03T23:29:18.181Z,100870.92
2018-10-03T23:31:45.817Z,100871.78
2018-10-03T23:34:13.446Z,100873.52
2018-10-03T23:36:41.072Z,100867.90
2018-10-03T23:39:10.292Z,100866.58
2018-10-03T23:41:38.313Z,100863.97
2018-10-03T23:44:06.002Z,100858.78
2018-10-03T23:46:33.914Z,100864.41
2018-10-03T23:49:01.561Z,100860.94
2018-10-03T23:51:29.189Z,100866.16
2018-10-03T23:53:56.824Z,100867.48
2018-10-03T23:56:24.505Z,100863.15
2018-10-03T23:58:52.133Z,100865.74
